sensor_id;sensor_type;location;lat;lon;timestamp;P1;durP1;ratioP1;P2;durP2;ratioP2
77164;SDS011;66140;50.280;18.660;2023-02-28T05:02:07;13.60;;;5.43;;
77164;SDS011;66140;50.280;18.660;2023-02-28T05:04:33;18.70;;;6.88;;
77164;SDS011;66140;50.280;18.660;2023-02-28T05:06:59;17.88;;;7.47;;
77164;SDS011;66140;50.280;18.660;2023-02-28T05:09:28;17.88;;;8.55;;
77164;SDS011;66140;50.280;18.660;2023-02-28T05:11:54;23.15;;;8.48;;
77164;SDS011;66140;50.280;18.660;2023-02-28T05:14:20;16.77;;;8.02;;
77164;SDS011;66140;50.280;18.660;2023-02-28T05:16:49;17.17;;;8.10;;
77164;SDS011;66140;50.280;18.660;2023-02-28T05:19:15;16.65;;;7.90;;
77164;SDS011;66140;50.280;18.660;2023-02-28T05:21:41;22.17;;;8.38;;
77164;SDS011;66140;50.280;18.660;2023-02-28T05:24:18;22.73;;;9.10;;
77164;SDS011;66140;50.280;18.660;2023-02-28T05:26:54;18.15;;;8.25;;
77164;SDS011;66140;50.280;18.660;2023-02-28T05:29:20;22.75;;;9.13;;
77164;SDS011;66140;50.280;18.660;2023-02-28T05:31:48;14.23;;;6.60;;
77164;SDS011;66140;50.280;18.660;2023-02-28T05:34:14;15.63;;;7.95;;
77164;SDS011;66140;50.280;18.660;2023-02-28T05:36:47;22.65;;;8.52;;
77164;SDS011;66140;50.280;18.660;2023-02-28T05:39:14;18.02;;;8.82;;
77164;SDS011;66140;50.280;18.660;2023-02-28T05:41:43;22.88;;;9.90;;
77164;SDS011;66140;50.280;18.660;2023-02-28T05:44:08;20.50;;;8.48;;
77164;SDS011;66140;50.280;18.660;2023-02-28T05:46:37;24.27;;;9.13;;
77164;SDS011;66140;50.280;18.660;2023-02-28T05:49:03;21.60;;;9.73;;
77164;SDS011;66140;50.280;18.660;2023-02-28T05:51:29;19.90;;;8.80;;
77164;SDS011;66140;50.280;18.660;2023-02-28T05:53:54;22.77;;;9.23;;
77164;SDS011;66140;50.280;18.660;2023-02-28T05:56:24;20.95;;;8.68;;
77164;SDS011;66140;50.280;18.660;2023-02-28T05:58:49;20.20;;;9.17;;
77164;SDS011;66140;50.280;18.660;2023-02-28T06:03:59;18.52;;;9.32;;
77164;SDS011;66140;50.280;18.660;2023-02-28T06:06:25;21.67;;;9.00;;
77164;SDS011;66140;50.280;18.660;2023-02-28T06:08:51;20.48;;;8.52;;
77164;SDS011;66140;50.280;18.660;2023-02-28T06:11:17;22.00;;;9.68;;
77164;SDS011;66140;50.280;18.660;2023-02-28T06:13:45;18.13;;;8.88;;
77164;SDS011;66140;50.280;18.660;2023-02-28T06:16:10;18.50;;;9.38;;
77164;SDS011;66140;50.280;18.660;2023-02-28T06:18:36;23.20;;;9.80;;
77164;SDS011;66140;50.280;18.660;2023-02-28T06:21:01;22.98;;;9.85;;
77164;SDS011;66140;50.280;18.660;2023-02-28T06:23:27;27.40;;;11.13;;
77164;SDS011;66140;50.280;18.660;2023-02-28T06:25:58;20.85;;;10.32;;
77164;SDS011;66140;50.280;18.660;2023-02-28T06:28:24;24.77;;;10.45;;
77164;SDS011;66140;50.280;18.660;2023-02-28T06:30:51;19.42;;;10.43;;
77164;SDS011;66140;50.280;18.660;2023-02-28T06:33:16;26.40;;;11.45;;
77164;SDS011;66140;50.280;18.660;2023-02-28T06:35:46;20.77;;;10.48;;
77164;SDS011;66140;50.280;18.660;2023-02-28T06:38:12;24.00;;;9.32;;
77164;SDS011;66140;50.280;18.660;2023-02-28T06:40:38;26.92;;;10.73;;
77164;SDS011;66140;50.280;18.660;2023-02-28T06:43:03;21.65;;;10.70;;
77164;SDS011;66140;50.280;18.660;2023-02-28T06:45:29;27.58;;;10.82;;
77164;SDS011;66140;50.280;18.660;2023-02-28T06:47:55;19.65;;;10.35;;
77164;SDS011;66140;50.280;18.660;2023-02-28T06:50:20;17.15;;;9.52;;
77164;SDS011;66140;50.280;18.660;2023-02-28T06:52:46;27.63;;;11.68;;
77164;SDS011;66140;50.280;18.660;2023-02-28T06:55:12;22.70;;;9.90;;
77164;SDS011;66140;50.280;18.660;2023-02-28T06:57:40;27.02;;;9.38;;
77164;SDS011;66140;50.280;18.660;2023-02-28T07:00:09;29.40;;;10.95;;
77164;SDS011;66140;50.280;18.660;2023-02-28T07:02:36;27.30;;;10.70;;
77164;SDS011;66140;50.280;18.660;2023-02-28T07:05:02;23.30;;;11.48;;
77164;SDS011;66140;50.280;18.660;2023-02-28T07:07:29;25.95;;;11.20;;
77164;SDS011;66140;50.280;18.660;2023-02-28T07:09:54;25.83;;;11.23;;
77164;SDS011;66140;50.280;18.660;2023-02-28T07:12:19;22.33;;;10.75;;
77164;SDS011;66140;50.280;18.660;2023-02-28T07:14:46;25.80;;;11.88;;
77164;SDS011;66140;50.280;18.660;2023-02-28T07:17:11;27.83;;;11.10;;
77164;SDS011;66140;50.280;18.660;2023-02-28T07:19:37;28.30;;;11.68;;
77164;SDS011;66140;50.280;18.660;2023-02-28T07:22:07;29.08;;;11.18;;
77164;SDS011;66140;50.280;18.660;2023-02-28T07:24:32;21.40;;;9.10;;
77164;SDS011;66140;50.280;18.660;2023-02-28T07:26:58;24.27;;;9.18;;
77164;SDS011;66140;50.280;18.660;2023-02-28T07:29:24;30.70;;;11.48;;
77164;SDS011;66140;50.280;18.660;2023-02-28T07:31:50;31.10;;;12.13;;
77164;SDS011;66140;50.280;18.660;2023-02-28T07:34:18;26.65;;;13.35;;
77164;SDS011;66140;50.280;18.660;2023-02-28T07:36:44;32.20;;;12.77;;
77164;SDS011;66140;50.280;18.660;2023-02-28T07:39:09;29.13;;;11.40;;
77164;SDS011;66140;50.280;18.660;2023-02-28T07:41:35;27.83;;;11.63;;
77164;SDS011;66140;50.280;18.660;2023-02-28T07:44:04;29.90;;;12.68;;
77164;SDS011;66140;50.280;18.660;2023-02-28T07:46:30;32.20;;;12.40;;
77164;SDS011;66140;50.280;18.660;2023-02-28T07:49:00;29.85;;;12.00;;
77164;SDS011;66140;50.280;18.660;2023-02-28T07:51:26;29.42;;;11.98;;
77164;SDS011;66140;50.280;18.660;2023-02-28T07:53:51;25.58;;;12.20;;
77164;SDS011;66140;50.280;18.660;2023-02-28T07:56:17;29.35;;;12.02;;
77164;SDS011;66140;50.280;18.660;2023-02-28T07:58:42;14.73;;;6.83;;
77164;SDS011;66140;50.280;18.660;2023-02-28T08:01:08;31.55;;;12.07;;
77164;SDS011;66140;50.280;18.660;2023-02-28T08:03:35;27.10;;;12.40;;
77164;SDS011;66140;50.280;18.660;2023-02-28T08:06:01;29.45;;;10.98;;
77164;SDS011;66140;50.280;18.660;2023-02-28T08:08:30;24.48;;;10.88;;
77164;SDS011;66140;50.280;18.660;2023-02-28T08:10:59;27.83;;;11.60;;
77164;SDS011;66140;50.280;18.660;2023-02-28T08:13:27;23.27;;;10.45;;
77164;SDS011;66140;50.280;18.660;2023-02-28T08:15:54;32.35;;;13.80;;
77164;SDS011;66140;50.280;18.660;2023-02-28T08:18:20;23.52;;;11.32;;
77164;SDS011;66140;50.280;18.660;2023-02-28T08:20:46;26.00;;;10.82;;
77164;SDS011;66140;50.280;18.660;2023-02-28T08:23:15;25.27;;;11.18;;
77164;SDS011;66140;50.280;18.660;2023-02-28T08:25:40;27.20;;;11.85;;
77164;SDS011;66140;50.280;18.660;2023-02-28T08:28:06;30.38;;;11.20;;
77164;SDS011;66140;50.280;18.660;2023-02-28T08:30:31;22.35;;;9.93;;
77164;SDS011;66140;50.280;18.660;2023-02-28T08:32:57;21.15;;;9.75;;
77164;SDS011;66140;50.280;18.660;2023-02-28T08:35:25;25.83;;;10.55;;
77164;SDS011;66140;50.280;18.660;2023-02-28T08:37:51;24.13;;;9.25;;
77164;SDS011;66140;50.280;18.660;2023-02-28T08:40:16;22.63;;;8.15;;
77164;SDS011;66140;50.280;18.660;2023-02-28T08:45:19;21.48;;;9.70;;
77164;SDS011;66140;50.280;18.660;2023-02-28T08:47:45;22.83;;;10.10;;
77164;SDS011;66140;50.280;18.660;2023-02-28T08:50:18;24.33;;;10.82;;
77164;SDS011;66140;50.280;18.660;2023-02-28T08:52:45;32.67;;;10.10;;
77164;SDS011;66140;50.280;18.660;2023-02-28T08:55:10;21.25;;;9.48;;
77164;SDS011;66140;50.280;18.660;2023-02-28T08:57:36;18.45;;;8.77;;
77164;SDS011;66140;50.280;18.660;2023-02-28T09:00:02;17.00;;;7.95;;
77164;SDS011;66140;50.280;18.660;2023-02-28T09:02:29;20.25;;;8.00;;
77164;SDS011;66140;50.280;18.660;2023-02-28T09:04:56;19.73;;;9.32;;
77164;SDS011;66140;50.280;18.660;2023-02-28T09:07:22;25.88;;;11.23;;
77164;SDS011;66140;50.280;18.660;2023-02-28T09:09:47;23.75;;;10.45;;
77164;SDS011;66140;50.280;18.660;2023-02-28T09:12:23;24.58;;;11.07;;
77164;SDS011;66140;50.280;18.660;2023-02-28T09:17:19;22.00;;;8.93;;
77164;SDS011;66140;50.280;18.660;2023-02-28T09:20:06;11.85;;;6.65;;
77164;SDS011;66140;50.280;18.660;2023-02-28T09:22:31;13.05;;;6.80;;
77164;SDS011;66140;50.280;18.660;2023-02-28T09:25:00;14.13;;;7.20;;
77164;SDS011;66140;50.280;18.660;2023-02-28T09:27:28;18.30;;;7.18;;
77164;SDS011;66140;50.280;18.660;2023-02-28T09:32:19;14.73;;;6.73;;
77164;SDS011;66140;50.280;18.660;2023-02-28T09:37:13;20.20;;;7.10;;
77164;SDS011;66140;50.280;18.660;2023-02-28T09:39:42;17.20;;;7.00;;
77164;SDS011;66140;50.280;18.660;2023-02-28T09:42:11;24.50;;;10.98;;
77164;SDS011;66140;50.280;18.660;2023-02-28T09:47:31;15.95;;;8.43;;
77164;SDS011;66140;50.280;18.660;2023-02-28T09:50:03;17.02;;;8.38;;
77164;SDS011;66140;50.280;18.660;2023-02-28T09:52:42;23.02;;;9.60;;
77164;SDS011;66140;50.280;18.660;2023-02-28T09:58:55;18.30;;;8.25;;
77164;SDS011;66140;50.280;18.660;2023-02-28T10:07:37;16.02;;;7.18;;
77164;SDS011;66140;50.280;18.660;2023-02-28T10:13:27;16.90;;;8.45;;
77164;SDS011;66140;50.280;18.660;2023-02-28T10:16:22;16.73;;;7.50;;
77164;SDS011;66140;50.280;18.660;2023-02-28T10:19:28;17.45;;;7.35;;
77164;SDS011;66140;50.280;18.660;2023-02-28T10:22:24;22.83;;;8.73;;
77164;SDS011;66140;50.280;18.660;2023-02-28T10:24:54;18.00;;;8.60;;
77164;SDS011;66140;50.280;18.660;2023-02-28T10:27:29;17.85;;;8.18;;
77164;SDS011;66140;50.280;18.660;2023-02-28T10:30:00;16.45;;;8.15;;
77164;SDS011;66140;50.280;18.660;2023-02-28T10:32:33;21.70;;;9.15;;
77164;SDS011;66140;50.280;18.660;2023-02-28T10:35:10;29.15;;;10.35;;
77164;SDS011;66140;50.280;18.660;2023-02-28T10:37:42;21.50;;;9.95;;
77164;SDS011;66140;50.280;18.660;2023-02-28T10:40:54;21.02;;;8.60;;
77164;SDS011;66140;50.280;18.660;2023-02-28T10:45:34;20.40;;;9.48;;
77164;SDS011;66140;50.280;18.660;2023-02-28T11:03:55;26.88;;;11.90;;
77164;SDS011;66140;50.280;18.660;2023-02-28T11:06:23;24.25;;;10.73;;
77164;SDS011;66140;50.280;18.660;2023-02-28T11:08:54;23.75;;;10.27;;
77164;SDS011;66140;50.280;18.660;2023-02-28T11:11:23;18.92;;;10.38;;
77164;SDS011;66140;50.280;18.660;2023-02-28T11:16:49;16.20;;;8.20;;
77164;SDS011;66140;50.280;18.660;2023-02-28T11:19:37;21.02;;;10.38;;
77164;SDS011;66140;50.280;18.660;2023-02-28T11:22:08;19.77;;;9.90;;
77164;SDS011;66140;50.280;18.660;2023-02-28T11:24:42;18.77;;;9.43;;
77164;SDS011;66140;50.280;18.660;2023-02-28T11:27:39;21.70;;;9.80;;
77164;SDS011;66140;50.280;18.660;2023-02-28T11:30:44;20.90;;;9.48;;
77164;SDS011;66140;50.280;18.660;2023-02-28T11:35:55;22.15;;;9.68;;
77164;SDS011;66140;50.280;18.660;2023-02-28T11:38:24;22.08;;;10.38;;
77164;SDS011;66140;50.280;18.660;2023-02-28T11:40:56;27.15;;;11.32;;
77164;SDS011;66140;50.280;18.660;2023-02-28T11:46:29;19.58;;;9.77;;
77164;SDS011;66140;50.280;18.660;2023-02-28T11:49:11;20.15;;;9.38;;
77164;SDS011;66140;50.280;18.660;2023-02-28T11:52:00;21.70;;;10.70;;
77164;SDS011;66140;50.280;18.660;2023-02-28T12:10:52;18.05;;;8.30;;
77164;SDS011;66140;50.280;18.660;2023-02-28T12:13:41;26.88;;;10.68;;
77164;SDS011;66140;50.280;18.660;2023-02-28T12:16:20;19.50;;;10.18;;
77164;SDS011;66140;50.280;18.660;2023-02-28T12:19:18;19.27;;;10.05;;
77164;SDS011;66140;50.280;18.660;2023-02-28T12:27:09;23.85;;;10.75;;
77164;SDS011;66140;50.280;18.660;2023-02-28T12:29:49;15.93;;;8.57;;
77164;SDS011;66140;50.280;18.660;2023-02-28T12:37:36;23.20;;;9.77;;
77164;SDS011;66140;50.280;18.660;2023-02-28T12:40:06;20.67;;;9.93;;
77164;SDS011;66140;50.280;18.660;2023-02-28T12:42:39;20.02;;;9.77;;
77164;SDS011;66140;50.280;18.660;2023-02-28T12:45:20;20.30;;;9.48;;
77164;SDS011;66140;50.280;18.660;2023-02-28T12:47:50;19.02;;;9.73;;
77164;SDS011;66140;50.280;18.660;2023-02-28T12:50:22;30.80;;;12.88;;
77164;SDS011;66140;50.280;18.660;2023-02-28T12:56:03;18.90;;;8.60;;
77164;SDS011;66140;50.280;18.660;2023-02-28T12:58:58;12.52;;;7.70;;
77164;SDS011;66140;50.280;18.660;2023-02-28T13:04:30;14.80;;;7.65;;
77164;SDS011;66140;50.280;18.660;2023-02-28T13:09:56;15.48;;;7.82;;
77164;SDS011;66140;50.280;18.660;2023-02-28T13:12:24;18.02;;;7.78;;
77164;SDS011;66140;50.280;18.660;2023-02-28T13:14:50;18.00;;;8.38;;
77164;SDS011;66140;50.280;18.660;2023-02-28T13:17:24;22.17;;;7.43;;
77164;SDS011;66140;50.280;18.660;2023-02-28T13:27:47;15.48;;;7.05;;
77164;SDS011;66140;50.280;18.660;2023-02-28T13:35:45;18.42;;;8.30;;
77164;SDS011;66140;50.280;18.660;2023-02-28T13:38:21;19.15;;;8.68;;
77164;SDS011;66140;50.280;18.660;2023-02-28T13:40:49;14.50;;;8.00;;
77164;SDS011;66140;50.280;18.660;2023-02-28T13:43:16;16.23;;;7.65;;
77164;SDS011;66140;50.280;18.660;2023-02-28T13:46:10;18.13;;;8.15;;
77164;SDS011;66140;50.280;18.660;2023-02-28T13:48:35;16.85;;;7.80;;
77164;SDS011;66140;50.280;18.660;2023-02-28T13:51:22;20.00;;;8.77;;
77164;SDS011;66140;50.280;18.660;2023-02-28T13:54:54;19.25;;;7.72;;
77164;SDS011;66140;50.280;18.660;2023-02-28T14:05:39;18.20;;;8.23;;
77164;SDS011;66140;50.280;18.660;2023-02-28T14:08:07;18.10;;;7.85;;
77164;SDS011;66140;50.280;18.660;2023-02-28T14:10:47;15.73;;;8.25;;
77164;SDS011;66140;50.280;18.660;2023-02-28T14:16:09;18.90;;;8.85;;
77164;SDS011;66140;50.280;18.660;2023-02-28T14:18:40;17.35;;;8.43;;
77164;SDS011;66140;50.280;18.660;2023-02-28T14:21:26;17.27;;;8.93;;
77164;SDS011;66140;50.280;18.660;2023-02-28T14:24:06;14.27;;;6.95;;
77164;SDS011;66140;50.280;18.660;2023-02-28T14:32:11;17.15;;;8.00;;
77164;SDS011;66140;50.280;18.660;2023-02-28T14:37:20;11.90;;;7.13;;
77164;SDS011;66140;50.280;18.660;2023-02-28T14:39:52;16.27;;;8.07;;
77164;SDS011;66140;50.280;18.660;2023-02-28T14:42:35;17.65;;;8.57;;
77164;SDS011;66140;50.280;18.660;2023-02-28T14:45:03;15.80;;;8.40;;
77164;SDS011;66140;50.280;18.660;2023-02-28T14:47:32;19.38;;;8.43;;
77164;SDS011;66140;50.280;18.660;2023-02-28T14:50:00;17.48;;;7.20;;
77164;SDS011;66140;50.280;18.660;2023-02-28T14:52:29;18.77;;;8.65;;
77164;SDS011;66140;50.280;18.660;2023-02-28T14:55:00;16.23;;;7.63;;
77164;SDS011;66140;50.280;18.660;2023-02-28T14:57:32;19.40;;;7.07;;
77164;SDS011;66140;50.280;18.660;2023-02-28T15:00:04;14.38;;;7.25;;
77164;SDS011;66140;50.280;18.660;2023-02-28T15:02:37;15.60;;;7.82;;
77164;SDS011;66140;50.280;18.660;2023-02-28T15:07:41;15.05;;;7.78;;
77164;SDS011;66140;50.280;18.660;2023-02-28T15:12:36;21.30;;;9.35;;
77164;SDS011;66140;50.280;18.660;2023-02-28T15:15:04;20.42;;;8.95;;
77164;SDS011;66140;50.280;18.660;2023-02-28T15:17:31;17.98;;;8.45;;
77164;SDS011;66140;50.280;18.660;2023-02-28T15:19:56;13.75;;;7.63;;
77164;SDS011;66140;50.280;18.660;2023-02-28T15:22:30;20.90;;;8.13;;
77164;SDS011;66140;50.280;18.660;2023-02-28T15:25:00;18.45;;;8.48;;
77164;SDS011;66140;50.280;18.660;2023-02-28T15:27:31;17.08;;;7.88;;
77164;SDS011;66140;50.280;18.660;2023-02-28T15:29:59;16.17;;;7.85;;
77164;SDS011;66140;50.280;18.660;2023-02-28T15:32:31;15.95;;;8.13;;
77164;SDS011;66140;50.280;18.660;2023-02-28T15:34:57;13.75;;;7.28;;
77164;SDS011;66140;50.280;18.660;2023-02-28T15:37:38;17.42;;;8.00;;
77164;SDS011;66140;50.280;18.660;2023-02-28T15:42:57;15.88;;;8.05;;
77164;SDS011;66140;50.280;18.660;2023-02-28T15:45:52;17.27;;;7.70;;
77164;SDS011;66140;50.280;18.660;2023-02-28T15:48:19;19.13;;;8.48;;
77164;SDS011;66140;50.280;18.660;2023-02-28T15:50:51;16.70;;;8.07;;
77164;SDS011;66140;50.280;18.660;2023-02-28T15:53:20;18.85;;;8.75;;
77164;SDS011;66140;50.280;18.660;2023-02-28T15:55:57;21.83;;;9.77;;
77164;SDS011;66140;50.280;18.660;2023-02-28T15:58:26;19.20;;;10.43;;
77164;SDS011;66140;50.280;18.660;2023-02-28T16:01:06;22.98;;;10.10;;
77164;SDS011;66140;50.280;18.660;2023-02-28T16:03:43;21.55;;;10.15;;
77164;SDS011;66140;50.280;18.660;2023-02-28T16:08:48;17.60;;;9.90;;
77164;SDS011;66140;50.280;18.660;2023-02-28T16:11:16;20.27;;;10.73;;
77164;SDS011;66140;50.280;18.660;2023-02-28T16:13:45;25.58;;;11.20;;
77164;SDS011;66140;50.280;18.660;2023-02-28T16:16:14;26.27;;;11.95;;
77164;SDS011;66140;50.280;18.660;2023-02-28T16:18:50;26.33;;;10.60;;
77164;SDS011;66140;50.280;18.660;2023-02-28T16:21:22;25.88;;;12.70;;
77164;SDS011;66140;50.280;18.660;2023-02-28T16:24:11;22.02;;;10.68;;
77164;SDS011;66140;50.280;18.660;2023-02-28T16:26:42;20.70;;;9.80;;
77164;SDS011;66140;50.280;18.660;2023-02-28T16:29:30;24.45;;;10.80;;
77164;SDS011;66140;50.280;18.660;2023-02-28T16:32:03;22.33;;;9.35;;
77164;SDS011;66140;50.280;18.660;2023-02-28T16:34:30;24.77;;;10.57;;
77164;SDS011;66140;50.280;18.660;2023-02-28T16:36:55;22.60;;;10.10;;
77164;SDS011;66140;50.280;18.660;2023-02-28T16:39:21;19.25;;;9.23;;
77164;SDS011;66140;50.280;18.660;2023-02-28T16:41:48;23.15;;;10.45;;
77164;SDS011;66140;50.280;18.660;2023-02-28T16:44:26;20.90;;;10.73;;
77164;SDS011;66140;50.280;18.660;2023-02-28T16:46:56;25.20;;;11.15;;
77164;SDS011;66140;50.280;18.660;2023-02-28T16:51:47;24.07;;;11.23;;
77164;SDS011;66140;50.280;18.660;2023-02-28T16:54:12;24.95;;;10.18;;
77164;SDS011;66140;50.280;18.660;2023-02-28T16:56:58;22.33;;;11.02;;
77164;SDS011;66140;50.280;18.660;2023-02-28T16:59:24;28.92;;;11.70;;
77164;SDS011;66140;50.280;18.660;2023-02-28T17:01:57;23.33;;;10.75;;
77164;SDS011;66140;50.280;18.660;2023-02-28T17:04:23;46.63;;;16.48;;
77164;SDS011;66140;50.280;18.660;2023-02-28T17:06:52;50.63;;;19.45;;
77164;SDS011;66140;50.280;18.660;2023-02-28T17:09:20;42.42;;;16.83;;
77164;SDS011;66140;50.280;18.660;2023-02-28T17:11:50;25.50;;;12.38;;
77164;SDS011;66140;50.280;18.660;2023-02-28T17:14:16;31.73;;;14.20;;
77164;SDS011;66140;50.280;18.660;2023-02-28T17:16:44;43.80;;;17.70;;
77164;SDS011;66140;50.280;18.660;2023-02-28T17:21:46;34.45;;;14.77;;
77164;SDS011;66140;50.280;18.660;2023-02-28T17:24:15;44.55;;;16.15;;
77164;SDS011;66140;50.280;18.660;2023-02-28T17:26:41;31.77;;;13.48;;
77164;SDS011;66140;50.280;18.660;2023-02-28T17:29:17;33.92;;;15.40;;
77164;SDS011;66140;50.280;18.660;2023-02-28T17:31:44;49.63;;;20.27;;
77164;SDS011;66140;50.280;18.660;2023-02-28T17:34:11;50.60;;;22.10;;
77164;SDS011;66140;50.280;18.660;2023-02-28T17:36:42;55.40;;;22.38;;
77164;SDS011;66140;50.280;18.660;2023-02-28T17:39:09;56.10;;;24.13;;
77164;SDS011;66140;50.280;18.660;2023-02-28T17:41:55;58.03;;;26.38;;
77164;SDS011;66140;50.280;18.660;2023-02-28T17:44:21;84.82;;;33.33;;
77164;SDS011;66140;50.280;18.660;2023-02-28T17:46:54;102.15;;;38.47;;
77164;SDS011;66140;50.280;18.660;2023-02-28T17:49:23;95.45;;;36.60;;
77164;SDS011;66140;50.280;18.660;2023-02-28T17:51:48;87.30;;;32.78;;
77164;SDS011;66140;50.280;18.660;2023-02-28T17:54:15;80.05;;;31.65;;
77164;SDS011;66140;50.280;18.660;2023-02-28T17:56:47;69.93;;;28.25;;
77164;SDS011;66140;50.280;18.660;2023-02-28T17:59:16;65.47;;;26.50;;
77164;SDS011;66140;50.280;18.660;2023-02-28T18:01:42;57.45;;;24.25;;
77164;SDS011;66140;50.280;18.660;2023-02-28T18:04:07;52.05;;;23.02;;
77164;SDS011;66140;50.280;18.660;2023-02-28T18:06:34;80.30;;;32.00;;
77164;SDS011;66140;50.280;18.660;2023-02-28T18:09:11;57.35;;;27.08;;
77164;SDS011;66140;50.280;18.660;2023-02-28T18:11:39;65.03;;;27.75;;
77164;SDS011;66140;50.280;18.660;2023-02-28T18:14:10;61.83;;;26.10;;
77164;SDS011;66140;50.280;18.660;2023-02-28T18:16:36;51.95;;;25.48;;
77164;SDS011;66140;50.280;18.660;2023-02-28T18:19:03;60.15;;;28.20;;
77164;SDS011;66140;50.280;18.660;2023-02-28T18:21:31;65.30;;;29.98;;
77164;SDS011;66140;50.280;18.660;2023-02-28T18:23:57;72.43;;;29.27;;
77164;SDS011;66140;50.280;18.660;2023-02-28T18:26:22;62.30;;;25.67;;
77164;SDS011;66140;50.280;18.660;2023-02-28T18:28:48;79.85;;;31.45;;
77164;SDS011;66140;50.280;18.660;2023-02-28T18:31:15;57.13;;;27.13;;
77164;SDS011;66140;50.280;18.660;2023-02-28T18:33:42;61.72;;;27.23;;
77164;SDS011;66140;50.280;18.660;2023-02-28T18:36:09;79.70;;;30.98;;
77164;SDS011;66140;50.280;18.660;2023-02-28T18:38:41;89.15;;;33.72;;
77164;SDS011;66140;50.280;18.660;2023-02-28T18:41:31;70.57;;;29.85;;
77164;SDS011;66140;50.280;18.660;2023-02-28T18:43:58;73.63;;;31.27;;
77164;SDS011;66140;50.280;18.660;2023-02-28T18:46:29;64.47;;;30.10;;
77164;SDS011;66140;50.280;18.660;2023-02-28T18:48:55;66.95;;;30.17;;
77164;SDS011;66140;50.280;18.660;2023-02-28T18:51:21;77.35;;;30.23;;
77164;SDS011;66140;50.280;18.660;2023-02-28T18:53:59;64.22;;;29.20;;
77164;SDS011;66140;50.280;18.660;2023-02-28T18:56:28;70.72;;;30.17;;
77164;SDS011;66140;50.280;18.660;2023-02-28T18:58:59;81.35;;;31.25;;
77164;SDS011;66140;50.280;18.660;2023-02-28T19:01:25;81.28;;;34.15;;
77164;SDS011;66140;50.280;18.660;2023-02-28T19:03:56;95.68;;;35.00;;
77164;SDS011;66140;50.280;18.660;2023-02-28T19:06:27;73.18;;;31.52;;
77164;SDS011;66140;50.280;18.660;2023-02-28T19:08:56;84.15;;;33.65;;
77164;SDS011;66140;50.280;18.660;2023-02-28T19:11:50;86.18;;;33.33;;
77164;SDS011;66140;50.280;18.660;2023-02-28T19:14:15;88.20;;;34.40;;
77164;SDS011;66140;50.280;18.660;2023-02-28T19:16:41;92.25;;;33.05;;
77164;SDS011;66140;50.280;18.660;2023-02-28T19:19:11;83.85;;;32.80;;
77164;SDS011;66140;50.280;18.660;2023-02-28T19:21:59;78.85;;;32.13;;
77164;SDS011;66140;50.280;18.660;2023-02-28T19:24:23;70.28;;;30.10;;
77164;SDS011;66140;50.280;18.660;2023-02-28T19:26:49;68.63;;;27.10;;
77164;SDS011;66140;50.280;18.660;2023-02-28T19:29:35;66.07;;;30.17;;
77164;SDS011;66140;50.280;18.660;2023-02-28T19:32:00;72.15;;;29.33;;
77164;SDS011;66140;50.280;18.660;2023-02-28T19:34:30;79.53;;;31.02;;
77164;SDS011;66140;50.280;18.660;2023-02-28T19:37:06;84.20;;;32.38;;
77164;SDS011;66140;50.280;18.660;2023-02-28T19:39:32;79.88;;;31.83;;
77164;SDS011;66140;50.280;18.660;2023-02-28T19:42:15;80.10;;;32.20;;
77164;SDS011;66140;50.280;18.660;2023-02-28T19:44:42;94.57;;;34.90;;
77164;SDS011;66140;50.280;18.660;2023-02-28T19:47:09;96.63;;;35.17;;
77164;SDS011;66140;50.280;18.660;2023-02-28T19:49:38;89.28;;;36.28;;
77164;SDS011;66140;50.280;18.660;2023-02-28T19:52:04;91.63;;;38.55;;
77164;SDS011;66140;50.280;18.660;2023-02-28T19:54:29;89.32;;;35.17;;
77164;SDS011;66140;50.280;18.660;2023-02-28T19:56:58;81.68;;;33.70;;
77164;SDS011;66140;50.280;18.660;2023-02-28T19:59:24;85.72;;;35.50;;
77164;SDS011;66140;50.280;18.660;2023-02-28T20:01:50;76.45;;;33.88;;
77164;SDS011;66140;50.280;18.660;2023-02-28T20:04:20;89.22;;;36.38;;
77164;SDS011;66140;50.280;18.660;2023-02-28T20:06:53;81.20;;;33.72;;
77164;SDS011;66140;50.280;18.660;2023-02-28T20:09:19;72.35;;;32.58;;
77164;SDS011;66140;50.280;18.660;2023-02-28T20:12:06;76.45;;;30.67;;
77164;SDS011;66140;50.280;18.660;2023-02-28T20:14:31;61.10;;;27.88;;
77164;SDS011;66140;50.280;18.660;2023-02-28T20:17:17;66.70;;;28.05;;
77164;SDS011;66140;50.280;18.660;2023-02-28T20:19:43;79.38;;;30.40;;
77164;SDS011;66140;50.280;18.660;2023-02-28T20:22:16;67.43;;;28.88;;
77164;SDS011;66140;50.280;18.660;2023-02-28T20:24:45;66.07;;;28.80;;
77164;SDS011;66140;50.280;18.660;2023-02-28T20:27:18;62.22;;;28.38;;
77164;SDS011;66140;50.280;18.660;2023-02-28T20:34:27;66.60;;;27.73;;
77164;SDS011;66140;50.280;18.660;2023-02-28T20:36:53;72.53;;;30.08;;
77164;SDS011;66140;50.280;18.660;2023-02-28T20:39:23;62.65;;;27.50;;
77164;SDS011;66140;50.280;18.660;2023-02-28T20:41:52;72.95;;;28.90;;
77164;SDS011;66140;50.280;18.660;2023-02-28T20:44:21;59.13;;;24.15;;
77164;SDS011;66140;50.280;18.660;2023-02-28T20:46:46;56.17;;;24.95;;
77164;SDS011;66140;50.280;18.660;2023-02-28T20:49:15;61.95;;;24.90;;
77164;SDS011;66140;50.280;18.660;2023-02-28T20:51:43;49.90;;;21.20;;
77164;SDS011;66140;50.280;18.660;2023-02-28T20:54:18;53.75;;;23.40;;
77164;SDS011;66140;50.280;18.660;2023-02-28T20:56:47;61.88;;;24.83;;
77164;SDS011;66140;50.280;18.660;2023-02-28T20:59:19;69.55;;;25.15;;
77164;SDS011;66140;50.280;18.660;2023-02-28T21:01:46;51.67;;;24.88;;
77164;SDS011;66140;50.280;18.660;2023-02-28T21:04:12;62.13;;;25.80;;
77164;SDS011;66140;50.280;18.660;2023-02-28T21:13:01;71.00;;;27.10;;
77164;SDS011;66140;50.280;18.660;2023-02-28T21:16:23;63.80;;;26.88;;
77164;SDS011;66140;50.280;18.660;2023-02-28T21:22:14;57.35;;;26.35;;
77164;SDS011;66140;50.280;18.660;2023-02-28T21:24:43;61.10;;;24.75;;
77164;SDS011;66140;50.280;18.660;2023-02-28T21:27:29;62.20;;;25.75;;
77164;SDS011;66140;50.280;18.660;2023-02-28T21:30:08;70.43;;;30.27;;
77164;SDS011;66140;50.280;18.660;2023-02-28T21:32:34;73.47;;;29.83;;
77164;SDS011;66140;50.280;18.660;2023-02-28T21:34:59;68.88;;;29.88;;
77164;SDS011;66140;50.280;18.660;2023-02-28T21:37:31;79.93;;;29.85;;
77164;SDS011;66140;50.280;18.660;2023-02-28T21:40:14;80.32;;;33.35;;
77164;SDS011;66140;50.280;18.660;2023-02-28T21:42:52;88.15;;;33.15;;
77164;SDS011;66140;50.280;18.660;2023-02-28T21:45:17;94.07;;;36.85;;
77164;SDS011;66140;50.280;18.660;2023-02-28T21:47:43;82.13;;;35.00;;
77164;SDS011;66140;50.280;18.660;2023-02-28T21:50:10;104.22;;;38.90;;
77164;SDS011;66140;50.280;18.660;2023-02-28T21:52:38;98.95;;;39.63;;
77164;SDS011;66140;50.280;18.660;2023-02-28T21:55:24;102.90;;;40.05;;
77164;SDS011;66140;50.280;18.660;2023-02-28T21:57:52;99.18;;;40.85;;
77164;SDS011;66140;50.280;18.660;2023-02-28T22:00:20;99.90;;;39.55;;
77164;SDS011;66140;50.280;18.660;2023-02-28T22:02:55;103.18;;;42.53;;
77164;SDS011;66140;50.280;18.660;2023-02-28T22:05:20;110.55;;;43.13;;
77164;SDS011;66140;50.280;18.660;2023-02-28T22:07:45;107.88;;;42.83;;
77164;SDS011;66140;50.280;18.660;2023-02-28T22:10:11;114.22;;;44.45;;